createdAt,value
2022-09-15T00:01:06.243Z,27.60
2022-09-15T00:03:33.135Z,27.60
2022-09-15T00:06:00.003Z,27.50
2022-09-15T00:08:26.887Z,27.60
2022-09-15T00:11:03.816Z,27.60
2022-09-15T00:13:30.616Z,27.50
2022-09-15T00:15:57.408Z,27.60
2022-09-15T00:18:24.610Z,27.50
2022-09-15T00:20:51.541Z,27.50
2022-09-15T00:23:18.323Z,27.60
2022-09-15T00:25:48.116Z,27.50
2022-09-15T00:28:16.575Z,27.50
2022-09-15T00:30:49.734Z,27.50
2022-09-15T00:33:18.265Z,27.50
2022-09-15T00:35:47.739Z,27.50
2022-09-15T00:38:15.590Z,27.50
2022-09-15T00:40:52.455Z,27.50
2022-09-15T00:43:22.429Z,27.50
2022-09-15T00:45:49.175Z,27.50
2022-09-15T00:48:20.751Z,27.50
2022-09-15T00:50:53.249Z,27.50
2022-09-15T00:53:20.784Z,27.50
2022-09-15T00:55:49.646Z,27.50
2022-09-15T00:58:32.784Z,27.50
2022-09-15T01:01:02.013Z,27.50
2022-09-15T01:03:32.589Z,27.40
2022-09-15T01:06:06.207Z,27.40
2022-09-15T01:08:34.779Z,27.50
2022-09-15T01:11:02.694Z,27.40
2022-09-15T01:13:29.893Z,27.40
2022-09-15T01:19:11.411Z,27.40
2022-09-15T01:21:58.864Z,27.40
2022-09-15T01:24:37.781Z,27.40
2022-09-15T01:27:41.143Z,27.40
2022-09-15T01:30:16.409Z,27.40
2022-09-15T01:33:09.497Z,27.40
2022-09-15T01:35:36.155Z,27.30
2022-09-15T01:38:15.424Z,27.30
2022-09-15T01:41:11.971Z,27.40
2022-09-15T01:43:59.477Z,27.30
2022-09-15T01:46:29.379Z,27.30
2022-09-15T01:48:59.470Z,27.30
2022-09-15T01:51:28.410Z,27.30
2022-09-15T01:53:56.966Z,27.30
2022-09-15T01:56:23.795Z,27.30
2022-09-15T01:58:51.440Z,27.30
2022-09-15T02:01:40.694Z,27.30
2022-09-15T02:04:23.072Z,27.20
2022-09-15T02:06:58.255Z,27.20
2022-09-15T02:09:54.714Z,27.20
2022-09-15T02:12:44.256Z,27.10
2022-09-15T02:15:15.046Z,27.10
2022-09-15T02:17:46.080Z,27.10
2022-09-15T02:20:39.050Z,27.10
2022-09-15T02:23:13.308Z,27.10
2022-09-15T02:25:52.742Z,27.10
2022-09-15T02:28:24.031Z,27.00
2022-09-15T02:30:53.514Z,27.00
2022-09-15T02:33:24.222Z,27.00
2022-09-15T02:35:52.478Z,26.90
2022-09-15T02:38:19.343Z,27.00
2022-09-15T02:40:46.857Z,26.90
2022-09-15T02:43:16.645Z,26.90
2022-09-15T02:45:43.898Z,26.90
2022-09-15T02:48:10.696Z,26.90
2022-09-15T02:50:38.630Z,26.90
2022-09-15T02:53:05.710Z,26.90
2022-09-15T02:55:32.788Z,26.90
2022-09-15T02:58:00.186Z,26.80
2022-09-15T03:00:28.604Z,26.80
2022-09-15T03:02:56.145Z,26.80
2022-09-15T03:05:30.361Z,26.80
2022-09-15T03:07:57.454Z,26.90
2022-09-15T03:10:25.788Z,26.80
2022-09-15T03:12:54.159Z,26.80
2022-09-15T03:15:23.480Z,26.70
2022-09-15T03:17:50.939Z,26.80
2022-09-15T03:20:20.326Z,26.70
2022-09-15T03:22:47.881Z,26.80
2022-09-15T03:25:14.701Z,26.80
2022-09-15T03:27:42.489Z,26.70
2022-09-15T03:30:10.158Z,26.60
2022-09-15T03:32:37.229Z,26.70
2022-09-15T03:35:05.184Z,26.80
2022-09-15T03:37:32.022Z,26.70
2022-09-15T03:39:59.203Z,26.70
2022-09-15T03:42:26.054Z,26.80
2022-09-15T03:44:53.088Z,26.80
2022-09-15T03:47:19.815Z,26.70
2022-09-15T03:49:46.523Z,26.70
2022-09-15T03:52:13.374Z,26.70
2022-09-15T03:54:40.539Z,26.70
2022-09-15T03:57:07.374Z,26.70
2022-09-15T03:59:34.118Z,26.70
2022-09-15T04:02:00.906Z,26.60
2022-09-15T04:04:28.116Z,26.70
2022-09-15T04:06:54.829Z,26.70
2022-09-15T04:09:21.575Z,26.60
2022-09-15T04:11:48.530Z,26.60
2022-09-15T04:14:15.681Z,26.70
2022-09-15T04:16:42.592Z,26.60
2022-09-15T04:19:09.450Z,26.60
2022-09-15T04:21:36.267Z,26.60
2022-09-15T04:24:04.900Z,26.60
2022-09-15T04:26:34.131Z,26.60
2022-09-15T04:29:04.536Z,26.50
2022-09-15T04:31:33.174Z,26.60
2022-09-15T04:34:00.290Z,26.50
2022-09-15T04:36:28.614Z,26.60
2022-09-15T04:38:56.770Z,26.50
2022-09-15T04:41:24.410Z,26.60
2022-09-15T04:43:51.529Z,26.60
2022-09-15T04:46:19.024Z,26.60
2022-09-15T04:48:46.494Z,26.60
2022-09-15T04:51:16.420Z,26.50
2022-09-15T04:53:44.792Z,26.60
2022-09-15T04:56:24.096Z,26.60
2022-09-15T04:59:02.416Z,26.60
2022-09-15T05:01:33.771Z,26.50
2022-09-15T05:04:04.034Z,26.60
2022-09-15T05:06:30.938Z,26.50
2022-09-15T05:08:58.337Z,26.50
2022-09-15T05:11:26.039Z,26.50
2022-09-15T05:13:53.068Z,26.50
2022-09-15T05:16:22.576Z,26.50
2022-09-15T05:18:50.667Z,26.40
2022-09-15T05:21:19.640Z,26.50
2022-09-15T05:23:46.652Z,26.40
2022-09-15T05:26:15.865Z,26.40
2022-09-15T05:28:43.150Z,26.50
2022-09-15T05:31:19.753Z,26.40
2022-09-15T05:33:48.181Z,26.50
2022-09-15T05:36:17.315Z,26.50
2022-09-15T05:38:44.736Z,26.50
2022-09-15T05:41:16.988Z,26.50
2022-09-15T05:43:45.158Z,26.50
2022-09-15T05:46:12.825Z,26.50
2022-09-15T05:48:39.704Z,26.50
2022-09-15T05:51:07.028Z,26.60
2022-09-15T05:53:35.916Z,26.50
2022-09-15T05:56:05.582Z,26.60
2022-09-15T05:58:32.992Z,26.50
2022-09-15T06:01:20.053Z,26.50
2022-09-15T06:03:47.882Z,26.50
2022-09-15T06:06:14.916Z,26.50
2022-09-15T06:08:50.031Z,26.60
2022-09-15T06:11:22.505Z,26.60
2022-09-15T06:13:52.654Z,26.60
2022-09-15T06:16:23.981Z,26.70
2022-09-15T06:18:53.121Z,26.70
2022-09-15T06:21:26.277Z,26.70
2022-09-15T06:23:54.903Z,26.70
2022-09-15T06:26:22.625Z,26.70
2022-09-15T06:28:50.720Z,26.80
2022-09-15T06:31:18.009Z,26.90
2022-09-15T06:33:47.252Z,27.00
2022-09-15T06:36:15.819Z,27.00
2022-09-15T06:38:43.490Z,27.10
2022-09-15T06:41:11.648Z,27.10
2022-09-15T06:43:39.208Z,27.20
2022-09-15T06:46:15.480Z,27.20
2022-09-15T06:48:46.347Z,27.30
2022-09-15T06:51:17.285Z,27.30
2022-09-15T06:53:44.246Z,27.40
2022-09-15T06:56:16.616Z,27.40
2022-09-15T06:58:44.395Z,27.50
2022-09-15T07:01:14.264Z,27.60
2022-09-15T07:03:43.696Z,27.50
2022-09-15T07:06:14.834Z,27.70
2022-09-15T07:08:42.204Z,27.70
2022-09-15T07:11:10.397Z,27.80
2022-09-15T07:13:38.114Z,27.80
2022-09-15T07:16:08.786Z,27.80
2022-09-15T07:18:38.626Z,27.80
2022-09-15T07:21:10.761Z,27.90
2022-09-15T07:23:37.901Z,27.80
2022-09-15T07:26:11.626Z,27.90
2022-09-15T07:28:39.453Z,28.00
2022-09-15T07:31:07.408Z,28.10
2022-09-15T07:33:35.254Z,28.20
2022-09-15T07:36:03.064Z,28.30
2022-09-15T07:38:29.890Z,28.40
2022-09-15T07:41:06.486Z,28.50
2022-09-15T07:43:33.512Z,28.70
2022-09-15T07:46:01.968Z,28.70
2022-09-15T07:48:29.476Z,28.80
2022-09-15T07:50:56.431Z,28.80
2022-09-15T07:53:23.298Z,28.90
2022-09-15T07:55:53.705Z,29.00
2022-09-15T07:58:21.859Z,29.00
2022-09-15T08:00:49.412Z,29.00
2022-09-15T08:03:16.723Z,29.00
2022-09-15T08:05:45.793Z,29.00
2022-09-15T08:08:12.974Z,29.10
2022-09-15T08:10:41.396Z,29.20
2022-09-15T08:13:08.782Z,29.40
2022-09-15T08:15:37.514Z,29.40
2022-09-15T08:18:05.255Z,29.50
2022-09-15T08:20:32.614Z,29.50
2022-09-15T08:22:59.684Z,29.50
2022-09-15T08:25:26.649Z,29.70
2022-09-15T08:27:54.533Z,29.80
2022-09-15T08:30:22.261Z,29.90
2022-09-15T08:32:49.571Z,30.00
2022-09-15T08:35:17.662Z,30.00
2022-09-15T08:37:44.373Z,30.00
2022-09-15T08:40:18.972Z,30.10
2022-09-15T08:42:48.490Z,30.20
2022-09-15T08:45:24.471Z,30.10
2022-09-15T08:47:58.684Z,30.10
2022-09-15T08:50:34.016Z,30.10
2022-09-15T08:53:12.889Z,30.10
2022-09-15T08:55:57.019Z,30.00
2022-09-15T08:58:30.191Z,30.00
2022-09-15T09:01:22.041Z,30.00
2022-09-15T09:04:04.362Z,29.90
2022-09-15T09:06:46.083Z,30.00
2022-09-15T09:09:20.034Z,30.00
2022-09-15T09:12:05.466Z,30.10
2022-09-15T09:14:56.843Z,30.10
2022-09-15T09:17:38.695Z,30.20
2022-09-15T09:20:17.383Z,30.10
2022-09-15T09:22:48.485Z,30.00
2022-09-15T09:25:27.159Z,30.00
2022-09-15T09:27:55.521Z,30.10
2022-09-15T09:30:24.381Z,30.00
2022-09-15T09:33:29.398Z,30.00
2022-09-15T09:35:59.839Z,30.00
2022-09-15T09:38:31.370Z,29.90
2022-09-15T09:41:02.115Z,29.90
2022-09-15T09:43:31.299Z,29.90
2022-09-15T09:45:59.301Z,29.70
2022-09-15T09:48:28.769Z,29.90
2022-09-15T09:50:56.200Z,29.80
2022-09-15T09:53:33.450Z,29.70
2022-09-15T09:56:12.603Z,29.70
2022-09-15T09:58:39.547Z,29.70
2022-09-15T10:01:18.673Z,29.60
2022-09-15T10:03:45.807Z,29.60
2022-09-15T10:06:22.281Z,29.50
2022-09-15T10:09:03.681Z,29.50
2022-09-15T10:11:51.526Z,29.40
2022-09-15T10:14:40.071Z,29.40
2022-09-15T10:17:12.437Z,29.40
2022-09-15T10:20:11.519Z,29.20
2022-09-15T10:22:40.531Z,29.20
2022-09-15T10:25:22.261Z,29.10
2022-09-15T10:28:22.062Z,29.10
2022-09-15T10:31:13.544Z,29.00
2022-09-15T10:33:42.664Z,29.10
2022-09-15T10:36:28.227Z,29.00
2022-09-15T10:39:10.476Z,29.00
2022-09-15T10:41:51.979Z,29.00
2022-09-15T10:44:31.972Z,29.00
2022-09-15T10:47:05.958Z,29.00
2022-09-15T10:50:09.052Z,29.00
2022-09-15T10:52:48.009Z,29.10
2022-09-15T10:56:02.010Z,29.20
2022-09-15T10:58:39.893Z,29.10
2022-09-15T11:01:30.181Z,29.00
2022-09-15T11:04:14.984Z,29.00
2022-09-15T11:06:41.780Z,29.00
2022-09-15T11:09:42.984Z,29.00
2022-09-15T11:12:12.720Z,29.00
2022-09-15T11:14:45.469Z,29.00
2022-09-15T11:17:51.712Z,29.00
2022-09-15T11:20:47.108Z,29.00
2022-09-15T11:23:23.517Z,29.00
2022-09-15T11:25:56.972Z,29.00
2022-09-15T11:28:27.568Z,29.00
2022-09-15T11:31:04.046Z,28.90
2022-09-15T11:33:44.717Z,28.90
2022-09-15T11:36:37.454Z,28.90
2022-09-15T11:39:19.515Z,29.00
2022-09-15T11:41:56.280Z,29.00
2022-09-15T11:44:27.748Z,29.00
2022-09-15T11:47:22.375Z,29.10
2022-09-15T11:50:00.365Z,29.10
2022-09-15T11:52:45.743Z,29.20
2022-09-15T11:55:31.767Z,29.20
2022-09-15T11:58:22.304Z,29.20
2022-09-15T12:01:13.720Z,29.40
2022-09-15T12:03:43.259Z,29.40
2022-09-15T12:06:29.055Z,29.40
2022-09-15T12:09:07.523Z,29.50
2022-09-15T12:11:45.162Z,29.50
2022-09-15T12:14:19.974Z,29.90
2022-09-15T12:16:47.158Z,30.30
2022-09-15T12:19:40.600Z,30.70
2022-09-15T12:22:24.100Z,31.30
2022-09-15T12:25:13.371Z,31.80
2022-09-15T12:27:40.332Z,32.20
2022-09-15T12:30:38.454Z,32.60
2022-09-15T12:33:42.987Z,33.00
2022-09-15T12:36:34.721Z,33.50
2022-09-15T12:39:03.402Z,33.90
2022-09-15T12:41:31.283Z,34.20
2022-09-15T12:44:15.297Z,34.50
2022-09-15T12:46:53.743Z,34.80
2022-09-15T12:49:27.670Z,35.10
2022-09-15T12:51:55.280Z,35.60
2022-09-15T12:54:30.914Z,36.10
2022-09-15T12:56:58.407Z,36.50
2022-09-15T12:59:27.043Z,36.70
2022-09-15T13:01:55.670Z,37.00
2022-09-15T13:04:41.201Z,37.10
2022-09-15T13:07:19.924Z,37.00
2022-09-15T13:09:59.079Z,36.70
2022-09-15T13:12:33.747Z,36.60
2022-09-15T13:15:05.354Z,36.20
2022-09-15T13:17:34.249Z,36.20
2022-09-15T13:20:10.707Z,36.60
2022-09-15T13:22:51.774Z,37.40
2022-09-15T13:25:25.491Z,37.40
2022-09-15T13:27:54.926Z,37.00
2022-09-15T13:30:30.423Z,36.60
2022-09-15T13:33:25.228Z,36.50
2022-09-15T13:35:52.182Z,36.60
2022-09-15T13:38:38.013Z,36.20
2022-09-15T13:41:46.193Z,35.60
2022-09-15T13:44:19.310Z,35.00
2022-09-15T13:46:58.568Z,34.70
2022-09-15T13:49:37.524Z,34.30
2022-09-15T13:52:33.019Z,34.20
2022-09-15T13:55:14.792Z,34.00
2022-09-15T14:00:55.134Z,33.50
2022-09-15T14:03:37.324Z,33.30
2022-09-15T14:06:25.014Z,33.10
2022-09-15T14:08:56.286Z,33.00
2022-09-15T14:11:29.726Z,33.00
2022-09-15T14:13:58.011Z,33.00
2022-09-15T14:16:34.025Z,32.90
2022-09-15T14:19:03.890Z,32.90
2022-09-15T14:21:33.448Z,32.80
2022-09-15T14:24:06.325Z,32.60
2022-09-15T14:26:35.683Z,32.50
2022-09-15T14:29:06.846Z,32.40
2022-09-15T14:31:40.290Z,32.40
2022-09-15T14:34:19.667Z,32.30
2022-09-15T14:36:54.106Z,32.40
2022-09-15T14:39:23.486Z,32.20
2022-09-15T14:41:51.115Z,32.20
2022-09-15T14:47:28.662Z,32.20
2022-09-15T14:50:13.863Z,32.10
2022-09-15T14:53:09.744Z,32.20
2022-09-15T14:55:43.509Z,32.20
2022-09-15T14:58:17.162Z,32.10
2022-09-15T15:01:00.018Z,32.00
2022-09-15T15:03:48.485Z,32.10
2022-09-15T15:06:51.426Z,32.00
2022-09-15T15:09:21.534Z,31.90
2022-09-15T15:11:56.905Z,31.80
2022-09-15T15:14:24.058Z,31.80
2022-09-15T15:16:56.956Z,31.70
2022-09-15T15:19:36.891Z,31.50
2022-09-15T15:22:23.736Z,31.50
2022-09-15T15:24:53.345Z,31.50
2022-09-15T15:27:40.513Z,31.40
2022-09-15T15:30:26.753Z,31.40
2022-09-15T15:32:54.858Z,31.30
2022-09-15T15:35:21.872Z,31.30
2022-09-15T15:37:49.698Z,31.20
2022-09-15T15:40:23.134Z,31.20
2022-09-15T15:43:07.980Z,31.20
2022-09-15T15:45:47.152Z,31.10
2022-09-15T15:48:13.974Z,31.10
2022-09-15T15:50:40.738Z,30.90
2022-09-15T15:53:07.634Z,30.90
2022-09-15T15:55:41.997Z,30.90
2022-09-15T15:58:13.234Z,30.90
2022-09-15T16:00:46.117Z,30.90
2022-09-15T16:03:14.367Z,30.90
2022-09-15T16:05:43.648Z,30.80
2022-09-15T16:08:38.095Z,30.80
2022-09-15T16:11:05.276Z,30.90
2022-09-15T16:13:32.079Z,30.80
2022-09-15T16:16:00.905Z,30.80
2022-09-15T16:18:28.804Z,30.90
2022-09-15T16:20:58.156Z,30.90
2022-09-15T16:23:25.155Z,30.70
2022-09-15T16:25:58.798Z,30.80
2022-09-15T16:28:25.815Z,30.80
2022-09-15T16:30:52.624Z,30.80
2022-09-15T16:33:19.394Z,30.70
2022-09-15T16:36:07.129Z,30.70
2022-09-15T16:38:39.716Z,30.70
2022-09-15T16:41:23.524Z,30.60
2022-09-15T16:43:50.476Z,30.60
2022-09-15T16:46:17.890Z,30.50
2022-09-15T16:48:47.289Z,30.50
2022-09-15T16:51:25.263Z,30.50
2022-09-15T16:53:54.315Z,30.40
2022-09-15T16:56:21.338Z,30.40
2022-09-15T16:58:48.225Z,30.30
2022-09-15T17:01:20.557Z,30.20
2022-09-15T17:03:48.326Z,30.20
2022-09-15T17:06:19.831Z,30.20
2022-09-15T17:08:46.751Z,30.00
2022-09-15T17:11:21.275Z,30.00
2022-09-15T17:13:50.800Z,29.80
2022-09-15T17:16:21.642Z,29.70
2022-09-15T17:18:49.096Z,29.60
2022-09-15T17:21:27.020Z,29.40
2022-09-15T17:23:55.037Z,29.40
2022-09-15T17:26:31.074Z,29.30
2022-09-15T17:29:05.566Z,29.20
2022-09-15T17:31:32.451Z,29.00
2022-09-15T17:33:59.667Z,28.90
2022-09-15T17:36:27.254Z,28.80
2022-09-15T17:38:56.983Z,28.70
2022-09-15T17:41:26.155Z,28.60
2022-09-15T17:43:53.171Z,28.70
2022-09-15T17:46:20.195Z,28.50
2022-09-15T17:48:46.978Z,28.50
2022-09-15T17:51:17.077Z,28.50
2022-09-15T17:53:45.192Z,28.40
2022-09-15T17:56:12.347Z,28.30
2022-09-15T17:58:39.606Z,28.30
2022-09-15T18:01:06.587Z,28.20
2022-09-15T18:03:35.460Z,28.20
2022-09-15T18:06:05.413Z,28.10
2022-09-15T18:08:33.247Z,28.20
2022-09-15T18:11:01.480Z,28.10
2022-09-15T18:13:32.125Z,28.10
2022-09-15T18:16:04.980Z,28.10
2022-09-15T18:18:31.899Z,28.00
2022-09-15T18:20:58.931Z,28.10
2022-09-15T18:23:29.582Z,28.10
2022-09-15T18:25:56.682Z,28.10
2022-09-15T18:28:23.466Z,28.00
2022-09-15T18:30:50.659Z,27.90
2022-09-15T18:33:23.531Z,27.90
2022-09-15T18:35:52.932Z,27.90
2022-09-15T18:38:19.814Z,27.90
2022-09-15T18:40:53.220Z,27.90
2022-09-15T18:43:20.566Z,27.90
2022-09-15T18:45:48.335Z,27.80
2022-09-15T18:48:15.581Z,27.70
2022-09-15T18:50:45.808Z,27.70
2022-09-15T18:53:13.043Z,27.60
2022-09-15T18:55:43.755Z,27.70
2022-09-15T18:58:11.916Z,27.70
2022-09-15T19:00:38.753Z,27.70
2022-09-15T19:03:09.634Z,27.70
2022-09-15T19:05:37.106Z,27.70
2022-09-15T19:08:04.563Z,27.70
2022-09-15T19:10:31.363Z,27.60
2022-09-15T19:12:58.155Z,27.70
2022-09-15T19:15:24.882Z,27.70
2022-09-15T19:17:51.874Z,27.60
2022-09-15T19:20:19.086Z,27.60
2022-09-15T19:22:46.358Z,27.50
2022-09-15T19:25:13.641Z,27.50
2022-09-15T19:27:41.299Z,27.50
2022-09-15T19:30:12.391Z,27.50
2022-09-15T19:32:40.410Z,27.40
2022-09-15T19:35:08.239Z,27.40
2022-09-15T19:37:41.642Z,27.40
2022-09-15T19:40:12.097Z,27.30
2022-09-15T19:42:39.896Z,27.40
2022-09-15T19:45:07.811Z,27.30
2022-09-15T19:47:35.378Z,27.30
2022-09-15T19:50:03.218Z,27.30
2022-09-15T19:52:30.114Z,27.20
2022-09-15T19:54:56.929Z,27.20
2022-09-15T19:57:24.398Z,27.20
2022-09-15T19:59:51.169Z,27.20
2022-09-15T20:02:18.087Z,27.20
2022-09-15T20:07:29.157Z,27.10
2022-09-15T20:09:55.891Z,27.10
2022-09-15T20:12:22.643Z,27.20
2022-09-15T20:14:49.299Z,27.10
2022-09-15T20:17:16.157Z,27.10
2022-09-15T20:19:43.193Z,27.10
2022-09-15T20:22:09.998Z,27.00
2022-09-15T20:24:36.712Z,27.00
2022-09-15T20:27:03.545Z,27.10
2022-09-15T20:29:30.354Z,27.00
2022-09-15T20:31:57.317Z,27.00
2022-09-15T20:34:24.062Z,27.10
2022-09-15T20:36:50.907Z,27.00
2022-09-15T20:39:22.083Z,27.00
2022-09-15T20:41:48.959Z,27.00
2022-09-15T20:44:15.844Z,27.00
2022-09-15T20:46:43.159Z,27.00
2022-09-15T20:49:11.358Z,27.00
2022-09-15T20:51:38.230Z,26.90
2022-09-15T20:54:08.238Z,26.90
2022-09-15T20:56:36.274Z,26.80
2022-09-15T20:59:04.491Z,26.80
2022-09-15T21:01:36.790Z,26.90
2022-09-15T21:04:05.432Z,26.80
2022-09-15T21:06:32.487Z,26.80
2022-09-15T21:08:59.502Z,26.80
2022-09-15T21:11:28.735Z,26.70
2022-09-15T21:13:57.183Z,26.70
2022-09-15T21:16:26.912Z,26.60
2022-09-15T21:18:54.076Z,26.60
2022-09-15T21:21:26.305Z,26.50
2022-09-15T21:23:55.286Z,26.60
2022-09-15T21:26:25.152Z,26.60
2022-09-15T21:28:52.130Z,26.50
2022-09-15T21:31:21.382Z,26.50
2022-09-15T21:33:49.502Z,26.50
2022-09-15T21:36:23.176Z,26.50
2022-09-15T21:38:51.752Z,26.40
2022-09-15T21:41:21.517Z,26.40
2022-09-15T21:43:49.194Z,26.30
2022-09-15T21:46:18.338Z,26.30
2022-09-15T21:48:47.405Z,26.20
2022-09-15T21:51:22.060Z,26.20
2022-09-15T21:53:53.358Z,26.20
2022-09-15T21:56:20.829Z,26.20
2022-09-15T21:58:47.577Z,26.20
2022-09-15T22:01:29.258Z,26.10
2022-09-15T22:04:01.617Z,26.20
2022-09-15T22:06:31.861Z,26.10
2022-09-15T22:09:00.657Z,26.10
2022-09-15T22:11:27.680Z,26.20
2022-09-15T22:13:54.685Z,26.10
2022-09-15T22:16:23.503Z,26.10
2022-09-15T22:18:51.295Z,26.00
2022-09-15T22:21:24.487Z,26.00
2022-09-15T22:23:53.539Z,26.00
2022-09-15T22:26:27.607Z,26.00
2022-09-15T22:28:54.666Z,26.00
2022-09-15T22:31:22.837Z,26.00
2022-09-15T22:33:49.899Z,26.00
2022-09-15T22:36:26.452Z,26.00
2022-09-15T22:38:56.380Z,25.90
2022-09-15T22:41:25.863Z,26.00
2022-09-15T22:43:52.866Z,25.90
2022-09-15T22:46:20.090Z,26.00
2022-09-15T22:48:47.004Z,26.00
2022-09-15T22:51:14.874Z,25.90
2022-09-15T22:53:41.877Z,25.80
2022-09-15T22:56:14.689Z,25.90
2022-09-15T22:58:43.962Z,25.90
2022-09-15T23:01:13.793Z,25.90
2022-09-15T23:03:41.328Z,25.90
2022-09-15T23:06:08.543Z,25.90
2022-09-15T23:08:36.427Z,25.90
2022-09-15T23:11:14.293Z,25.80
2022-09-15T23:13:41.694Z,25.80
2022-09-15T23:16:08.953Z,25.80
2022-09-15T23:18:36.598Z,25.70
2022-09-15T23:21:09.361Z,25.80
2022-09-15T23:23:40.708Z,25.70
2022-09-15T23:26:10.219Z,25.80
2022-09-15T23:28:39.106Z,25.60
2022-09-15T23:31:06.945Z,25.70
2022-09-15T23:33:34.880Z,25.60
2022-09-15T23:36:03.125Z,25.60
2022-09-15T23:38:30.474Z,25.70
2022-09-15T23:40:57.739Z,25.70
2022-09-15T23:43:24.554Z,25.60
2022-09-15T23:45:51.457Z,25.60
2022-09-15T23:48:18.557Z,25.60
2022-09-15T23:50:45.977Z,25.60
2022-09-15T23:53:13.540Z,25.60
2022-09-15T23:55:40.317Z,25.60
2022-09-15T23:58:07.216Z,25.50
